Time;durP1;ratioP1;P1;durP2;ratioP2;P2;SDS_P1;SDS_P2;PMS_P1;PMS_P2;Temp;Humidity;BMP_temperature;BMP_pressure;BME280_temperature;BME280_humidity;BME280_pressure;Samples;Min_cycle;Max_cycle;Signal;HPM_P1;HPM_P2
2023/01/24 00:03:35;;;;;;;63.20;24.03;;;1.20;99.90;;;;;;7755258;28;20204;-88
2023/01/24 00:07:21;;;;;;;57.27;22.63;;;1.30;99.90;;;;;;7742949;28;20187;-88
2023/01/24 00:11:09;;;;;;;57.63;23.27;;;1.20;99.90;;;;;;7743684;28;20208;-88
2023/01/24 00:14:57;;;;;;;63.17;22.87;;;1.30;99.90;;;;;;7760117;28;20184;-87
2023/01/24 00:18:43;;;;;;;60.30;23.17;;;1.30;99.90;;;;;;7759448;28;20573;-88
2023/01/24 00:22:29;;;;;;;54.17;22.13;;;1.30;99.90;;;;;;7760085;28;20287;-88
2023/01/24 00:26:16;;;;;;;55.90;22.07;;;1.40;99.90;;;;;;7743357;28;20187;-88
2023/01/24 00:30:04;;;;;;;56.53;22.83;;;1.30;99.90;;;;;;7744228;28;20685;-88
2023/01/24 00:33:49;;;;;;;50.97;21.53;;;1.30;99.90;;;;;;7760074;28;20206;-87
2023/01/24 00:37:35;;;;;;;60.30;22.43;;;1.30;99.90;;;;;;7744140;28;20642;-88
2023/01/24 00:41:21;;;;;;;54.10;22.13;;;1.30;99.90;;;;;;7736486;28;20638;-89
2023/01/24 00:45:07;;;;;;;56.67;22.43;;;1.30;99.90;;;;;;7745233;28;20211;-88
2023/01/24 00:48:52;;;;;;;51.30;21.10;;;1.30;99.90;;;;;;7749029;28;20288;-88
2023/01/24 00:52:38;;;;;;;58.33;20.90;;;1.30;99.90;;;;;;7750722;28;20208;-88
2023/01/24 00:56:24;;;;;;;53.90;21.93;;;1.30;99.90;;;;;;7748776;28;20176;-88
2023/01/24 01:00:10;;;;;;;54.13;22.13;;;1.30;99.90;;;;;;7750376;28;20254;-86
2023/01/24 01:03:56;;;;;;;54.10;21.03;;;1.30;99.90;;;;;;7749255;28;20187;-88
2023/01/24 01:07:42;;;;;;;56.10;21.60;;;1.30;99.90;;;;;;7748267;28;20212;-88
2023/01/24 01:11:28;;;;;;;55.50;22.50;;;1.30;99.90;;;;;;7743545;28;20268;-88
2023/01/24 01:15:13;;;;;;;61.93;22.50;;;1.20;99.90;;;;;;7718200;28;20181;-88
2023/01/24 01:22:47;;;;;;;55.70;22.87;;;1.20;99.90;;;;;;7741762;28;20224;-87
2023/01/24 01:26:32;;;;;;;56.90;23.30;;;1.10;99.90;;;;;;7731156;28;20176;-87
2023/01/24 01:30:18;;;;;;;66.80;24.93;;;1.10;99.90;;;;;;7744310;28;20196;-87
2023/01/24 01:34:04;;;;;;;64.50;24.53;;;1.20;99.90;;;;;;7730688;28;20203;-87
2023/01/24 01:37:49;;;;;;;61.93;23.47;;;1.20;99.90;;;;;;7719243;28;20188;-87
2023/01/24 01:41:35;;;;;;;60.10;23.43;;;1.20;99.90;;;;;;7701370;28;20865;-87
2023/01/24 01:45:36;;;;;;;60.77;23.93;;;1.30;99.90;;;;;;7701091;28;20332;-86
2023/01/24 01:49:26;;;;;;;58.93;23.63;;;1.30;99.90;;;;;;7717895;28;20200;-87
2023/01/24 01:53:12;;;;;;;66.17;24.77;;;1.30;99.90;;;;;;7718521;28;20792;-87
2023/01/24 01:57:07;;;;;;;66.03;24.13;;;1.30;99.90;;;;;;7699979;28;20224;-87
2023/01/24 02:00:53;;;;;;;56.20;23.27;;;1.30;99.90;;;;;;7700635;28;20202;-87
2023/01/24 02:04:45;;;;;;;66.17;24.87;;;1.30;99.90;;;;;;7716730;28;20180;-86
2023/01/24 02:08:33;;;;;;;64.70;23.87;;;1.30;99.90;;;;;;7700071;28;20227;-87
2023/01/24 02:12:31;;;;;;;59.53;22.93;;;1.30;99.90;;;;;;7717878;28;20201;-87
2023/01/24 02:16:17;;;;;;;57.67;22.70;;;1.30;99.90;;;;;;7700348;28;20173;-87
2023/01/24 02:20:18;;;;;;;64.73;24.67;;;1.30;99.90;;;;;;7699794;28;20263;-85
2023/01/24 02:24:25;;;;;;;50.63;21.93;;;1.30;99.90;;;;;;7705873;28;20186;-87
2023/01/24 02:28:10;;;;;;;58.03;22.80;;;1.30;99.90;;;;;;7745829;28;20183;-87
2023/01/24 02:32:02;;;;;;;57.60;22.50;;;1.30;99.90;;;;;;7729973;28;20295;-87
2023/01/24 02:35:47;;;;;;;54.37;22.00;;;1.20;99.90;;;;;;7747194;28;20172;-87
2023/01/24 02:39:44;;;;;;;51.87;21.17;;;1.20;99.90;;;;;;7729394;28;20266;-87
2023/01/24 02:43:36;;;;;;;55.93;22.67;;;1.20;99.90;;;;;;7729888;28;20273;-87
2023/01/24 02:47:26;;;;;;;62.33;22.23;;;1.20;99.90;;;;;;7746553;28;20172;-87
2023/01/24 02:55:15;;;;;;;59.20;23.00;;;1.30;99.90;;;;;;7747275;28;20169;-87
2023/01/24 02:59:01;;;;;;;59.67;23.40;;;1.30;99.90;;;;;;7728657;28;20242;-87
2023/01/24 03:02:46;;;;;;;66.17;23.17;;;1.30;99.90;;;;;;7729211;28;20708;-87
2023/01/24 03:06:32;;;;;;;57.63;22.40;;;1.20;99.90;;;;;;7745730;28;20232;-86
2023/01/24 03:10:18;;;;;;;58.23;22.90;;;1.30;99.90;;;;;;7745875;28;20204;-87
2023/01/24 03:34:31;;;;;;;64.43;24.17;;;1.20;99.90;;;;;;7742600;28;20215;-87
2023/01/24 03:42:21;;;;;;;66.70;23.33;;;1.30;99.90;;;;;;7746322;28;20168;-87
2023/01/24 03:46:06;;;;;;;68.97;23.47;;;1.20;99.90;;;;;;7745546;28;20226;-87
2023/01/24 03:53:56;;;;;;;66.07;23.60;;;1.20;99.90;;;;;;7715368;28;20673;-88
2023/01/24 03:57:42;;;;;;;70.17;23.60;;;1.20;99.90;;;;;;7711645;28;20561;-86
2023/01/24 04:01:28;;;;;;;67.27;23.77;;;1.20;99.90;;;;;;7744062;28;20842;-88
2023/01/24 04:05:15;;;;;;;70.53;24.50;;;1.20;99.90;;;;;;7754058;28;20222;-87
2023/01/24 04:09:00;;;;;;;59.70;23.43;;;1.20;99.90;;;;;;7745017;28;20188;-87
2023/01/24 04:12:46;;;;;;;70.57;24.10;;;1.20;99.90;;;;;;7744323;28;20350;-87
2023/01/24 04:16:31;;;;;;;66.07;24.90;;;1.20;99.90;;;;;;7734635;28;20188;-87
2023/01/24 04:20:17;;;;;;;60.73;23.83;;;1.20;99.90;;;;;;7699687;28;20270;-87
2023/01/24 04:24:03;;;;;;;64.80;24.03;;;1.20;99.90;;;;;;7721032;28;20553;-88
2023/01/24 04:27:49;;;;;;;64.13;24.13;;;1.20;99.90;;;;;;7702992;28;20180;-87
2023/01/24 04:31:34;;;;;;;70.30;24.07;;;1.20;99.90;;;;;;7703361;28;20312;-87
2023/01/24 04:35:23;;;;;;;66.17;24.40;;;1.20;99.90;;;;;;7720732;28;20201;-87
2023/01/24 04:39:08;;;;;;;67.23;25.13;;;1.20;99.90;;;;;;7702708;28;20200;-87
2023/01/24 04:42:58;;;;;;;61.13;23.77;;;1.20;99.90;;;;;;7703430;28;20181;-87
2023/01/24 04:46:43;;;;;;;63.23;23.93;;;1.20;99.90;;;;;;7702672;28;20736;-87
2023/01/24 04:50:29;;;;;;;64.17;24.93;;;1.20;99.90;;;;;;7708915;28;21641;-87
2023/01/24 04:54:16;;;;;;;88.10;32.13;;;1.20;99.90;;;;;;7738868;28;20207;-88
2023/01/24 04:58:02;;;;;;;192.43;63.83;;;1.20;99.90;;;;;;7732869;28;20164;-88
2023/01/24 05:01:48;;;;;;;91.27;38.73;;;1.30;99.90;;;;;;7768468;28;20214;-88
2023/01/24 05:05:33;;;;;;;81.00;33.40;;;1.20;99.90;;;;;;7738532;28;20654;-87
2023/01/24 05:09:19;;;;;;;70.17;29.37;;;1.10;99.90;;;;;;7748043;28;20669;-87
2023/01/24 05:13:05;;;;;;;67.93;28.20;;;1.30;99.90;;;;;;7749498;28;20258;-88
2023/01/24 05:16:50;;;;;;;68.40;24.57;;;1.20;99.90;;;;;;7748780;28;20266;-87
2023/01/24 05:20:36;;;;;;;63.80;24.77;;;1.20;99.90;;;;;;7748857;28;20631;-88
2023/01/24 05:24:21;;;;;;;58.77;23.70;;;1.20;99.90;;;;;;7729481;28;20200;-87
2023/01/24 05:28:07;;;;;;;59.37;23.33;;;1.20;99.90;;;;;;7713722;28;20278;-87
2023/01/24 05:31:53;;;;;;;55.23;23.03;;;1.20;99.90;;;;;;7749438;28;20211;-87
2023/01/24 05:35:40;;;;;;;59.07;23.90;;;1.20;99.90;;;;;;7748589;28;20180;-87
2023/01/24 05:39:26;;;;;;;63.50;25.40;;;1.20;99.90;;;;;;7749363;28;20192;-88
2023/01/24 05:43:12;;;;;;;62.17;24.87;;;1.20;99.90;;;;;;7736032;28;20254;-87
2023/01/24 05:46:58;;;;;;;59.83;25.00;;;1.20;99.90;;;;;;7732000;28;20190;-86
2023/01/24 05:50:43;;;;;;;60.83;24.03;;;1.30;99.90;;;;;;7727549;28;20212;-88
2023/01/24 05:54:29;;;;;;;59.07;24.17;;;1.20;99.90;;;;;;7737363;28;20598;-87
2023/01/24 05:58:15;;;;;;;58.80;24.30;;;1.20;99.90;;;;;;7729397;28;20649;-86
2023/01/24 06:02:00;;;;;;;55.03;22.97;;;1.20;99.90;;;;;;7731774;28;20180;-87
2023/01/24 06:05:53;;;;;;;61.73;23.30;;;1.20;99.90;;;;;;7750266;28;20258;-87
2023/01/24 06:09:39;;;;;;;124.17;37.93;;;1.20;99.90;;;;;;7731454;28;20571;-88
2023/01/24 06:13:25;;;;;;;190.30;59.70;;;1.20;99.90;;;;;;7731005;28;20231;-87
2023/01/24 06:17:10;;;;;;;130.27;47.60;;;1.20;99.90;;;;;;7731106;28;20592;-87
2023/01/24 06:20:56;;;;;;;141.13;52.50;;;1.20;99.90;;;;;;7749454;28;20685;-87
2023/01/24 06:24:42;;;;;;;192.20;80.10;;;1.20;99.90;;;;;;7737660;28;20586;-87
2023/01/24 06:28:28;;;;;;;113.90;49.60;;;1.20;99.90;;;;;;7732486;28;20222;-88
2023/01/24 06:32:27;;;;;;;96.90;41.17;;;1.20;99.90;;;;;;7731759;28;20282;-88
2023/01/24 06:36:33;;;;;;;65.23;27.57;;;1.20;99.90;;;;;;7732084;28;20203;-88
2023/01/24 06:40:22;;;;;;;76.43;36.50;;;1.20;99.90;;;;;;7731209;28;20614;-88
2023/01/24 06:44:11;;;;;;;70.30;31.43;;;1.20;99.90;;;;;;7731821;28;20179;-88
2023/01/24 06:47:57;;;;;;;65.97;27.70;;;1.20;99.90;;;;;;7732604;28;20266;-87
2023/01/24 06:51:48;;;;;;;66.10;23.63;;;1.20;99.90;;;;;;7731759;28;20212;-88
2023/01/24 06:55:35;;;;;;;64.03;25.27;;;1.10;99.90;;;;;;7732173;28;20635;-88
2023/01/24 06:59:22;;;;;;;63.80;24.23;;;1.10;99.90;;;;;;7731678;28;20203;-87
2023/01/24 07:03:08;;;;;;;56.47;22.80;;;1.10;99.90;;;;;;7731813;28;20270;-87
2023/01/24 07:06:54;;;;;;;60.70;24.03;;;1.10;99.90;;;;;;7731827;28;20187;-87
2023/01/24 07:10:40;;;;;;;54.77;23.63;;;1.10;99.90;;;;;;7748078;28;20242;-86
2023/01/24 07:14:26;;;;;;;60.97;25.27;;;1.10;99.90;;;;;;7726844;28;20238;-84
2023/01/24 07:18:13;;;;;;;61.07;25.90;;;1.20;99.90;;;;;;7728029;28;20183;-88
2023/01/24 07:21:59;;;;;;;64.40;22.57;;;1.10;99.90;;;;;;7766808;23;20602;-89
2023/01/24 07:25:45;;;;;;;65.43;24.40;;;1.10;99.90;;;;;;7745763;28;20259;-88
2023/01/24 07:29:31;;;;;;;59.87;23.00;;;1.10;99.90;;;;;;7739181;28;20674;-89
2023/01/24 07:33:16;;;;;;;68.53;23.97;;;1.10;99.90;;;;;;7737028;28;20212;-89
2023/01/24 07:37:02;;;;;;;61.87;24.17;;;1.10;99.90;;;;;;7745347;28;20560;-90
2023/01/24 07:40:48;;;;;;;60.87;24.40;;;1.10;99.90;;;;;;7748190;28;20199;-89
2023/01/24 07:44:33;;;;;;;62.07;24.80;;;1.10;99.90;;;;;;7745394;28;20638;-90
2023/01/24 07:48:19;;;;;;;72.93;29.17;;;1.20;99.90;;;;;;7744920;28;20635;-90
2023/01/24 07:52:05;;;;;;;62.00;25.00;;;1.10;99.90;;;;;;7744245;28;20271;-90
2023/01/24 07:55:50;;;;;;;72.77;27.47;;;1.10;99.90;;;;;;7745026;28;20179;-90
2023/01/24 07:59:36;;;;;;;68.23;28.43;;;1.10;99.90;;;;;;7744565;28;20223;-90
2023/01/24 08:03:22;;;;;;;70.47;26.87;;;1.20;99.90;;;;;;7743661;28;20188;-89
2023/01/24 08:07:16;;;;;;;63.03;24.53;;;1.20;99.90;;;;;;7744133;28;20263;-90
2023/01/24 08:11:02;;;;;;;59.27;23.33;;;1.10;99.90;;;;;;7744645;28;20203;-90
2023/01/24 08:14:48;;;;;;;61.43;24.43;;;1.10;99.90;;;;;;7744443;28;20204;-90
2023/01/24 08:18:34;;;;;;;62.37;24.43;;;1.10;99.90;;;;;;7744645;28;20176;-90
2023/01/24 08:22:19;;;;;;;64.63;24.60;;;1.20;99.90;;;;;;7758549;28;20231;-90
2023/01/24 08:26:06;;;;;;;60.60;24.17;;;1.10;99.90;;;;;;7743867;28;20210;-90
2023/01/24 08:29:52;;;;;;;57.90;21.47;;;1.10;99.90;;;;;;7757563;28;20202;-90
2023/01/24 08:33:38;;;;;;;56.00;22.90;;;1.10;99.90;;;;;;7738392;28;20258;-90
2023/01/24 08:37:23;;;;;;;60.60;23.63;;;1.10;99.90;;;;;;7758345;28;20175;-90
2023/01/24 08:41:09;;;;;;;60.00;22.57;;;1.20;99.90;;;;;;7758071;28;20200;-90
2023/01/24 08:44:55;;;;;;;56.87;22.27;;;1.20;99.90;;;;;;7776117;28;20183;-90
2023/01/24 08:48:40;;;;;;;80.63;28.17;;;1.20;99.90;;;;;;7757961;28;20214;-90
2023/01/24 08:52:26;;;;;;;75.67;26.10;;;1.30;99.90;;;;;;7758194;28;20195;-90
2023/01/24 08:56:12;;;;;;;65.33;23.37;;;1.20;99.90;;;;;;7758544;28;20180;-89
2023/01/24 08:59:58;;;;;;;62.27;23.03;;;1.20;99.90;;;;;;7757817;28;20289;-89
2023/01/24 09:03:43;;;;;;;65.33;22.80;;;1.30;99.90;;;;;;7758468;28;20179;-90
2023/01/24 09:07:29;;;;;;;62.80;22.70;;;1.20;99.90;;;;;;7762407;28;20185;-88
2023/01/24 09:11:15;;;;;;;62.10;23.10;;;1.30;99.90;;;;;;7763587;28;20564;-90
2023/01/24 09:15:00;;;;;;;57.23;23.60;;;1.30;99.90;;;;;;7763604;28;20210;-90
2023/01/24 09:18:46;;;;;;;60.47;22.97;;;1.30;99.90;;;;;;7763226;28;20211;-89
2023/01/24 09:22:32;;;;;;;68.30;24.27;;;1.30;99.90;;;;;;7775627;23;20601;-89
2023/01/24 09:26:17;;;;;;;68.17;23.77;;;1.30;99.90;;;;;;7763464;28;20180;-88
2023/01/24 09:30:05;;;;;;;64.93;22.23;;;1.30;99.90;;;;;;7780341;28;20196;-88
2023/01/24 09:33:50;;;;;;;59.60;21.27;;;1.30;99.90;;;;;;7763320;28;20706;-89
2023/01/24 09:37:36;;;;;;;61.73;22.07;;;1.30;99.90;;;;;;7762316;28;20198;-88
2023/01/24 09:42:00;;;;;;;60.07;23.60;;;1.30;99.90;;;;;;7762884;28;20699;-90
2023/01/24 09:45:57;;;;;;;79.93;30.40;;;1.30;99.90;;;;;;7762751;28;20245;-88
2023/01/24 09:49:54;;;;;;;70.73;27.63;;;1.30;99.90;;;;;;7762104;28;20231;-88
2023/01/24 09:53:48;;;;;;;99.33;34.23;;;1.30;99.90;;;;;;7719519;28;20507;-90
2023/01/24 09:58:01;;;;;;;147.03;46.10;;;1.30;99.90;;;;;;7717947;28;20173;-88
2023/01/24 10:01:48;;;;;;;155.50;50.40;;;1.30;99.90;;;;;;7746014;28;20204;-87
2023/01/24 10:05:38;;;;;;;115.17;39.37;;;1.30;99.90;;;;;;7731984;28;20805;-87
2023/01/24 10:09:43;;;;;;;88.40;31.20;;;1.30;99.90;;;;;;7731757;28;20212;-88
2023/01/24 10:13:50;;;;;;;82.57;28.70;;;1.30;99.90;;;;;;7732171;28;20203;-88
2023/01/24 10:17:59;;;;;;;131.57;44.97;;;1.30;99.90;;;;;;7731016;28;20179;-89
2023/01/24 10:22:09;;;;;;;92.13;31.97;;;1.30;99.90;;;;;;7701264;28;20295;-89
2023/01/24 10:26:16;;;;;;;73.80;26.63;;;1.30;99.90;;;;;;7722144;28;20196;-88
2023/01/24 10:30:23;;;;;;;69.13;27.43;;;1.30;99.90;;;;;;7718465;28;20290;-88
2023/01/24 10:34:34;;;;;;;87.83;31.53;;;1.30;99.90;;;;;;7730227;28;20204;-87
2023/01/24 10:38:20;;;;;;;74.07;27.20;;;1.40;99.90;;;;;;7725933;28;20183;-90
2023/01/24 10:42:27;;;;;;;76.33;26.23;;;1.40;99.90;;;;;;7729864;28;20203;-91
2023/01/24 10:46:38;;;;;;;73.73;25.10;;;1.30;99.90;;;;;;7729503;28;20592;-91
2023/01/24 10:50:23;;;;;;;60.47;24.63;;;1.30;99.90;;;;;;7728901;28;20572;-92
2023/01/24 10:54:22;;;;;;;72.87;25.23;;;1.30;99.90;;;;;;7728735;28;20239;-89
2023/01/24 10:58:22;;;;;;;65.80;24.00;;;1.40;99.90;;;;;;7745949;28;20172;-91
2023/01/24 11:02:20;;;;;;;66.23;24.47;;;1.30;99.90;;;;;;7728917;28;20307;-91
2023/01/24 11:06:39;;;;;;;72.40;24.60;;;1.40;99.90;;;;;;7728618;28;20700;-91
2023/01/24 11:10:34;;;;;;;71.60;23.73;;;1.40;99.90;;;;;;7728511;28;20440;-90
2023/01/24 11:14:26;;;;;;;74.13;25.00;;;1.40;99.90;;;;;;7728408;28;20310;-90
2023/01/24 11:18:25;;;;;;;78.57;24.17;;;1.30;99.90;;;;;;7745887;28;20240;-90
2023/01/24 11:22:22;;;;;;;71.03;23.97;;;1.30;99.90;;;;;;7728843;28;20235;-90
2023/01/24 11:26:24;;;;;;;64.23;24.43;;;1.30;99.90;;;;;;7728217;28;20643;-90
2023/01/24 11:30:12;;;;;;;70.03;25.53;;;1.30;99.90;;;;;;7728163;28;20215;-90
2023/01/24 11:34:01;;;;;;;73.90;23.63;;;1.30;99.90;;;;;;7728471;28;20218;-90
2023/01/24 11:38:12;;;;;;;60.03;23.20;;;1.30;99.90;;;;;;7727201;28;20187;-90
2023/01/24 11:42:20;;;;;;;73.10;23.87;;;1.30;99.90;;;;;;7727982;28;20302;-90
2023/01/24 11:46:12;;;;;;;63.30;23.03;;;1.30;99.90;;;;;;7745122;28;20187;-90
2023/01/24 11:50:08;;;;;;;71.60;23.80;;;1.30;99.90;;;;;;7744674;28;20669;-91
2023/01/24 11:54:09;;;;;;;70.23;23.60;;;1.40;99.90;;;;;;7724726;28;20218;-90
2023/01/24 11:58:07;;;;;;;67.27;22.47;;;1.40;99.90;;;;;;7727904;28;20187;-90
2023/01/24 12:02:08;;;;;;;84.87;25.90;;;1.40;99.90;;;;;;7727865;28;20677;-91
2023/01/24 12:06:09;;;;;;;70.30;24.30;;;1.40;99.90;;;;;;7737820;28;20191;-90
2023/01/24 12:10:21;;;;;;;68.20;22.17;;;1.50;99.90;;;;;;7726975;28;20211;-90
2023/01/24 12:14:28;;;;;;;69.80;24.53;;;1.40;99.90;;;;;;7727510;28;20212;-90
2023/01/24 12:18:16;;;;;;;68.80;23.27;;;1.50;99.90;;;;;;7726980;28;20191;-90
2023/01/24 12:22:16;;;;;;;65.00;24.10;;;1.50;99.90;;;;;;7727350;28;20224;-90
2023/01/24 12:26:19;;;;;;;67.17;23.43;;;1.50;99.90;;;;;;7726602;28;20262;-90
2023/01/24 12:30:14;;;;;;;72.73;24.43;;;1.60;99.90;;;;;;7726638;28;20688;-90
2023/01/24 12:34:22;;;;;;;78.57;25.87;;;1.50;99.90;;;;;;7727062;28;20468;-91
2023/01/24 12:38:23;;;;;;;75.53;27.83;;;1.50;99.90;;;;;;7726004;28;20184;-89
2023/01/24 12:42:15;;;;;;;72.27;24.73;;;1.50;99.90;;;;;;7730506;28;20262;-92
2023/01/24 12:46:26;;;;;;;73.67;25.23;;;1.40;99.90;;;;;;7733541;28;20192;-90
2023/01/24 12:50:25;;;;;;;66.60;23.37;;;1.50;99.90;;;;;;7732442;28;20200;-91
2023/01/24 12:54:25;;;;;;;73.00;24.53;;;1.50;99.90;;;;;;7732294;28;20300;-90
2023/01/24 12:58:26;;;;;;;76.27;25.40;;;1.50;99.90;;;;;;7732035;28;20258;-90
2023/01/24 13:02:42;;;;;;;66.13;23.83;;;1.50;99.90;;;;;;7732012;28;20500;-90
2023/01/24 13:06:33;;;;;;;80.20;26.27;;;1.50;99.90;;;;;;7731412;28;20275;-90
2023/01/24 13:10:50;;;;;;;74.77;25.43;;;1.50;99.90;;;;;;7731955;28;20621;-89
2023/01/24 13:14:42;;;;;;;70.60;24.03;;;1.50;99.90;;;;;;7730480;28;20304;-90
2023/01/24 13:19:02;;;;;;;74.27;25.17;;;1.50;99.90;;;;;;7754331;28;20641;-89
2023/01/24 13:22:57;;;;;;;84.03;30.50;;;1.50;99.90;;;;;;7779952;23;20721;-87
2023/01/24 13:27:07;;;;;;;72.03;28.57;;;1.50;99.90;;;;;;7809565;28;20636;-87
2023/01/24 13:31:05;;;;;;;89.13;33.33;;;1.50;99.90;;;;;;7795709;28;20201;-87
2023/01/24 13:34:56;;;;;;;74.07;26.37;;;1.50;99.90;;;;;;7756694;28;20673;-87
2023/01/24 13:38:44;;;;;;;68.90;26.03;;;1.60;99.90;;;;;;7749049;28;20180;-87
2023/01/24 13:42:35;;;;;;;61.07;24.43;;;1.50;99.90;;;;;;7749657;28;20203;-87
2023/01/24 13:46:56;;;;;;;65.37;25.33;;;1.60;99.90;;;;;;7769383;28;20187;-89
2023/01/24 13:50:43;;;;;;;67.50;25.30;;;1.50;99.90;;;;;;7767323;28;20294;-88
2023/01/24 13:54:39;;;;;;;58.57;24.30;;;1.60;99.90;;;;;;7778894;28;20286;-88
2023/01/24 13:58:25;;;;;;;61.47;23.27;;;1.60;99.90;;;;;;7772925;28;20195;-89
2023/01/24 14:02:35;;;;;;;61.77;24.77;;;1.60;99.90;;;;;;7781153;28;20203;-88
2023/01/24 14:06:21;;;;;;;61.70;24.17;;;1.60;99.90;;;;;;7766585;28;20238;-88
2023/01/24 14:10:09;;;;;;;56.70;24.30;;;1.70;99.90;;;;;;7780547;28;20207;-88
2023/01/24 14:13:58;;;;;;;56.90;22.07;;;1.70;99.90;;;;;;7767364;28;20319;-89
2023/01/24 14:17:51;;;;;;;59.67;23.47;;;1.70;99.90;;;;;;7778687;28;20229;-89
2023/01/24 14:21:49;;;;;;;60.57;24.13;;;1.60;99.90;;;;;;7780158;28;20243;-89
2023/01/24 14:25:41;;;;;;;63.10;24.30;;;1.70;99.90;;;;;;7749980;28;20629;-87
2023/01/24 14:29:37;;;;;;;63.40;22.83;;;1.60;99.90;;;;;;7778069;28;20250;-88
2023/01/24 14:33:42;;;;;;;58.70;23.53;;;1.80;99.90;;;;;;7782617;28;20209;-88
2023/01/24 14:37:31;;;;;;;52.40;22.20;;;1.70;99.90;;;;;;7764061;28;20187;-88
2023/01/24 14:41:21;;;;;;;56.30;22.13;;;1.70;99.90;;;;;;7780053;28;20568;-89
2023/01/24 14:45:14;;;;;;;51.87;20.83;;;1.80;99.90;;;;;;7828891;28;20179;-89
2023/01/24 14:49:12;;;;;;;62.83;25.23;;;1.60;99.90;;;;;;7839951;28;20171;-88
2023/01/24 14:52:58;;;;;;;71.50;28.53;;;1.60;99.90;;;;;;7806259;28;20218;-87
2023/01/24 14:56:44;;;;;;;67.43;28.77;;;1.60;99.90;;;;;;7781001;28;20266;-87
2023/01/24 15:00:29;;;;;;;56.03;22.93;;;1.60;99.90;;;;;;7782334;28;20239;-87
2023/01/24 15:04:26;;;;;;;57.80;23.43;;;1.70;99.90;;;;;;7771982;28;20667;-88
2023/01/24 15:08:16;;;;;;;71.07;30.27;;;1.60;99.90;;;;;;7778574;28;20186;-87
2023/01/24 15:12:23;;;;;;;63.47;26.23;;;1.60;99.90;;;;;;7778029;28;20207;-87
2023/01/24 15:16:18;;;;;;;56.77;21.87;;;1.60;99.90;;;;;;7776444;28;20317;-88
2023/01/24 15:20:10;;;;;;;51.97;20.67;;;1.60;99.90;;;;;;7781242;28;20202;-87
2023/01/24 15:23:57;;;;;;;59.23;21.83;;;1.60;99.90;;;;;;7763089;28;20203;-87
2023/01/24 15:27:43;;;;;;;48.97;21.07;;;1.60;99.90;;;;;;7770928;28;20184;-88
2023/01/24 15:31:30;;;;;;;50.20;21.10;;;1.60;99.90;;;;;;7775375;28;20208;-87
2023/01/24 15:35:28;;;;;;;53.73;20.17;;;1.60;99.90;;;;;;7777098;28;20569;-88
2023/01/24 15:39:15;;;;;;;49.27;19.93;;;1.60;99.90;;;;;;7754402;28;20188;-87
2023/01/24 15:51:33;;;;;;;57.23;23.23;;;1.60;99.90;;;;;;7785330;28;20294;-87
2023/01/24 15:55:26;;;;;;;48.57;19.73;;;1.60;99.90;;;;;;7784333;28;20210;-86
2023/01/24 15:59:20;;;;;;;45.67;18.53;;;1.50;99.90;;;;;;7772034;28;20187;-87
2023/01/24 16:03:08;;;;;;;59.70;22.17;;;1.60;99.90;;;;;;7775438;28;20187;-88
2023/01/24 16:06:54;;;;;;;66.43;23.67;;;1.70;99.90;;;;;;7782209;28;20238;-87
2023/01/24 16:10:42;;;;;;;66.47;29.10;;;1.60;99.90;;;;;;7776536;28;20199;-87
2023/01/24 16:14:29;;;;;;;94.50;45.90;;;1.90;99.90;;;;;;7778766;28;20644;-88
2023/01/24 16:18:15;;;;;;;88.87;41.23;;;2.00;99.90;;;;;;7766995;28;20190;-88
2023/01/24 16:22:00;;;;;;;50.17;23.60;;;2.30;99.90;;;;;;7755449;28;20216;-87
2023/01/24 16:25:48;;;;;;;61.53;28.70;;;2.40;99.90;;;;;;7768731;28;20287;-87
2023/01/24 16:29:34;;;;;;;65.73;26.93;;;2.50;99.90;;;;;;7784957;28;20213;-87
2023/01/24 16:33:21;;;;;;;56.90;23.20;;;2.60;99.90;;;;;;7764507;28;20284;-87
2023/01/24 16:37:08;;;;;;;61.33;23.33;;;2.70;99.90;;;;;;7776291;28;20172;-88
2023/01/24 16:40:54;;;;;;;67.93;27.83;;;2.70;99.90;;;;;;7797227;28;20297;-86
2023/01/24 16:44:40;;;;;;;52.90;22.17;;;2.80;99.90;;;;;;7780451;28;20197;-87
2023/01/24 16:48:25;;;;;;;63.33;27.50;;;2.70;99.90;;;;;;7775724;28;20196;-87
2023/01/24 16:52:14;;;;;;;56.87;25.93;;;2.70;99.90;;;;;;7779089;28;20211;-86
2023/01/24 16:56:00;;;;;;;52.80;23.30;;;2.80;99.90;;;;;;7779337;28;20579;-87
2023/01/24 16:59:48;;;;;;;62.27;26.43;;;3.20;99.90;;;;;;7773251;28;20238;-88
2023/01/24 17:03:35;;;;;;;64.97;25.20;;;2.80;99.90;;;;;;7775948;28;20191;-87
2023/01/24 17:07:21;;;;;;;67.67;27.77;;;2.80;99.90;;;;;;7775413;28;20195;-88
2023/01/24 17:11:09;;;;;;;60.33;25.80;;;2.80;99.90;;;;;;7775284;28;20240;-86
2023/01/24 17:14:56;;;;;;;74.23;30.07;;;2.70;99.90;;;;;;7775225;28;20217;-87
2023/01/24 17:18:42;;;;;;;84.73;40.60;;;2.70;99.90;;;;;;7781181;28;20187;-87
2023/01/24 17:22:28;;;;;;;96.07;45.17;;;2.80;99.90;;;;;;7770067;28;20277;-86
2023/01/24 17:26:16;;;;;;;253.43;99.10;;;2.80;99.90;;;;;;7790754;28;20237;-87
2023/01/24 17:30:07;;;;;;;341.90;125.07;;;2.80;99.90;;;;;;7779784;28;20208;-88
2023/01/24 17:33:53;;;;;;;109.37;43.47;;;2.70;99.90;;;;;;7785213;28;20215;-87
2023/01/24 17:37:39;;;;;;;95.77;39.00;;;2.90;99.90;;;;;;7778482;28;20183;-87
2023/01/24 17:41:24;;;;;;;134.93;54.83;;;2.70;99.90;;;;;;7773224;28;20207;-87
2023/01/24 17:45:10;;;;;;;113.23;47.20;;;2.60;99.90;;;;;;7781079;28;20636;-87
2023/01/24 17:48:57;;;;;;;67.17;29.50;;;2.70;99.90;;;;;;7771972;28;20187;-86
2023/01/24 17:52:42;;;;;;;66.97;28.87;;;2.70;99.90;;;;;;7784905;28;20298;-87
2023/01/24 17:56:28;;;;;;;71.70;31.10;;;2.60;99.90;;;;;;7778982;28;20183;-87
2023/01/24 18:00:14;;;;;;;74.63;36.53;;;2.60;99.90;;;;;;7772836;28;20253;-86
2023/01/24 18:04:01;;;;;;;77.57;35.97;;;2.60;99.90;;;;;;7773961;28;20266;-87
2023/01/24 18:07:49;;;;;;;64.13;27.50;;;2.60;99.90;;;;;;7778110;28;20183;-88
2023/01/24 18:11:36;;;;;;;63.33;27.07;;;2.60;99.90;;;;;;7763422;28;20212;-87
2023/01/24 18:15:23;;;;;;;69.27;28.07;;;2.60;99.90;;;;;;7775689;28;20207;-87
2023/01/24 18:19:09;;;;;;;63.80;28.53;;;2.60;99.90;;;;;;7776793;28;20183;-88
2023/01/24 18:22:55;;;;;;;57.60;26.27;;;2.50;99.90;;;;;;7773120;28;20230;-87
2023/01/24 18:26:41;;;;;;;64.13;28.47;;;2.50;99.90;;;;;;7781177;28;20206;-88
2023/01/24 18:30:28;;;;;;;72.50;31.50;;;2.60;99.90;;;;;;7776938;28;20211;-87
2023/01/24 18:34:14;;;;;;;71.83;27.23;;;2.60;99.90;;;;;;7777434;28;20210;-86
2023/01/24 18:38:03;;;;;;;77.23;34.27;;;2.60;99.90;;;;;;7758583;28;20792;-88
2023/01/24 18:41:48;;;;;;;60.63;25.77;;;2.60;99.90;;;;;;7773823;28;20196;-89
2023/01/24 18:45:36;;;;;;;62.90;25.17;;;2.60;99.90;;;;;;7777952;28;20843;-87
2023/01/24 18:49:22;;;;;;;65.63;27.53;;;2.50;99.90;;;;;;7773986;28;20187;-86
2023/01/24 18:53:09;;;;;;;66.63;29.23;;;2.50;99.90;;;;;;7755231;28;20274;-86
2023/01/24 18:56:55;;;;;;;99.00;47.63;;;2.50;99.90;;;;;;7772597;28;20180;-87
2023/01/24 19:00:40;;;;;;;90.50;42.87;;;2.60;99.90;;;;;;7764458;28;20210;-87
2023/01/24 19:04:27;;;;;;;161.63;82.70;;;2.60;99.90;;;;;;7769763;28;20270;-88
2023/01/24 19:08:13;;;;;;;62.27;28.13;;;2.50;99.90;;;;;;7775219;28;20176;-86
2023/01/24 19:11:59;;;;;;;57.80;23.67;;;2.50;99.90;;;;;;7776299;28;20199;-88
2023/01/24 19:15:44;;;;;;;64.17;26.87;;;2.50;99.90;;;;;;7771429;28;20238;-87
2023/01/24 19:19:30;;;;;;;68.47;31.47;;;2.50;99.90;;;;;;7776932;28;20207;-88
2023/01/24 19:23:28;;;;;;;59.87;25.63;;;2.50;99.90;;;;;;7766583;28;20199;-87
2023/01/24 19:27:15;;;;;;;59.90;22.77;;;2.50;99.90;;;;;;7790974;28;20555;-87
2023/01/24 19:31:02;;;;;;;56.30;25.33;;;2.50;99.90;;;;;;7773545;28;20214;-86
2023/01/24 19:34:48;;;;;;;75.40;37.37;;;2.50;99.90;;;;;;7775092;28;20203;-87
2023/01/24 19:38:34;;;;;;;72.17;28.97;;;2.50;99.90;;;;;;7773353;28;20175;-87
2023/01/24 19:42:19;;;;;;;59.63;26.50;;;2.50;99.90;;;;;;7768125;28;20719;-88
2023/01/24 19:46:05;;;;;;;62.33;24.27;;;2.40;99.90;;;;;;7777541;28;20671;-88
2023/01/24 19:49:51;;;;;;;60.13;22.47;;;2.40;99.90;;;;;;7777875;28;20206;-87
2023/01/24 19:53:37;;;;;;;53.67;21.50;;;2.50;99.90;;;;;;7813191;28;20195;-90
2023/01/24 19:57:23;;;;;;;48.20;21.27;;;2.50;99.90;;;;;;7824477;28;20205;-88
2023/01/24 20:01:12;;;;;;;52.00;21.47;;;2.40;99.90;;;;;;7805368;28;20723;-87
2023/01/24 20:04:58;;;;;;;64.03;27.23;;;2.40;99.90;;;;;;7779907;28;20183;-86
2023/01/24 20:08:45;;;;;;;59.53;23.43;;;2.40;99.90;;;;;;7778870;28;20645;-86
2023/01/24 20:12:30;;;;;;;60.30;23.33;;;2.40;99.90;;;;;;7777392;28;20219;-87
2023/01/24 20:16:25;;;;;;;51.47;21.80;;;2.40;99.90;;;;;;7774786;28;20194;-87
2023/01/24 20:20:11;;;;;;;53.20;20.93;;;2.40;99.90;;;;;;7775489;28;20199;-86
2023/01/24 20:23:59;;;;;;;56.77;22.10;;;2.30;99.90;;;;;;7779059;28;20191;-88
2023/01/24 20:27:48;;;;;;;54.17;22.93;;;2.40;99.90;;;;;;7767943;28;20194;-88